• Join FlightAware (Why Join?)
  • Login
  • US Flag 
01:01PM EDT


 

Airport Tracker/Info


-or-


 

Live Flight TrackerFlight Track Log ✈ RPA4937 ✈ 02-Jul-2013 ✈ KHDN - KDEN

Flight Track Log - Related Links

Times and Time Zones

All times are in EDT time to prevent confusion due to time zone crossing. See the RPA4937 flight status page for this flight to view local times or setup timezone preferences in your user account.

Time Position Orientation Groundspeed Altitude Reporting Facility
EDT Latitude Longitude Course Direction KTS MPH feet Rate Location/Type
08:29AM 40.4872 -107.2325 90° East 39 45 6,400  Level Denver Center
08:30AM 40.4728 -107.1919 115° Southeast 184 212 7,400 1,560 Climbing Denver Center
08:31AM 40.4278 -107.1586 151° Southeast 188 216 9,600 2,040 Climbing Denver Center
08:33AM 40.3733 -107.1308 159° South 202 232 11,600 1,800 Climbing Denver Center
08:34AM 40.5167 -106.7467 90° East  Level FlightAware Approximate
08:34AM 40.3264 -107.0722 136° Southeast 234 269 13,300  Level Denver Center
08:35AM 40.5167 -106.6351 90° East  Level FlightAware Approximate
08:35AM 40.3461 -106.9969 71° East 227 261 14,900  Level Denver Center
08:36AM 40.5167 -106.5235 90° East  Level FlightAware Approximate
08:36AM 40.3417 -106.8978 93° East 243 280 16,700  Level Denver Center
08:37AM 40.3464 -106.8133 86° East 247 284 17,800 960 Climbing Denver Center
08:38AM 40.3464 -106.7119 90° East 271 312 18,700 1,080 Climbing Denver Center
08:39AM 40.3456 -106.6103 91° East 278 320 20,100 1,260 Climbing Denver Center
08:40AM 40.3478 -106.5050 88° East 279 321 21,300 1,020 Climbing Denver Center
08:41AM 40.3486 -106.4078 89° East 277 319 22,200 780 Climbing Denver Center
08:42AM 40.3508 -106.2925 89° East 282 325 23,000 360 Climbing Denver Center
08:43AM 40.3519 -106.1847 89° East 301 346 23,000  Level Denver Center
08:44AM 40.3517 -106.0700 90° East 320 368 23,000  Level Denver Center
08:45AM 40.3531 -105.9469 89° East 333 383 23,000 -60 Level Denver Center
08:46AM 40.3544 -105.8203 89° East 344 396 22,900 -1,140 Descending Denver Center
08:47AM 40.3544 -105.6919 90° East 350 403 20,700 -2,520 Descending Denver Center
08:48AM 40.3550 -105.5344 90° East 359 413 17,800 -2,220 Descending Denver Center
08:49AM 40.3308 -105.4156 105° East 371 427 16,200 -1,620 Descending Denver Center
08:50AM 40.3044 -105.3039 107° East 326 375 14,600 -1,560 Descending Denver Center
08:51AM 40.2775 -105.1875 107° East 313 360 13,100 -840 Descending Denver Center
08:52AM 40.2542 -105.0808 106° East 307 353 13,000 -60 Descending Denver Center
08:53AM 40.2289 -104.9764 108° East 304 350 13,000 -300 Level Denver Center
08:54AM 40.1883 -104.8758 118° Southeast 316 364 12,400 -840 Descending Denver Center
08:55AM 40.1436 -104.7756 120° Southeast 318 366 11,300 -1,500 Descending Denver Center
08:56AM 40.0806 -104.7053 140° Southeast 292 336 9,400 -1,740 Descending Denver Center
08:57AM 40.0044 -104.6958 175° South 275 316 7,800 -1,380 Descending Denver Center
08:58AM 39.9483 -104.6956 180° South 195 224 6,600 -1,080 Descending Denver Center
08:59AM 39.9089 -104.6958 180° South 140 161 5,600 -660 Descending Denver Center
09:00AM 39.8772 -104.6961 180° South 105 121 5,300 -300 Descending Denver Center
09:02AM 39.8617 -104.6732 162° South  Level Estimated
09:09AM 39.8617 -104.6732 339° North  Level Estimated
09:10AM 39.8617 -104.6732 339° North  Level Estimated